Time;durP1;ratioP1;P1;durP2;ratioP2;P2;SDS_P1;SDS_P2;PMS_P1;PMS_P2;Temp;Humidity;BMP_temperature;BMP_pressure;BME280_temperature;BME280_humidity;BME280_pressure;Samples;Min_cycle;Max_cycle;Signal;HPM_P1;HPM_P2
2022/10/18 00:02:13;;;;;;;20.63;8.13;;;10.80;99.90;;;;;;4858556;29;20015;-75
2022/10/18 00:04:38;;;;;;;;;;;10.80;99.90;;;;;;4859785;29;20487;-75
2022/10/18 00:07:04;;;;;;;18.58;8.38;;;10.70;99.90;;;;;;4842595;29;19992;-75
2022/10/18 00:09:30;;;;;;;;;;;10.70;99.90;;;;;;4859776;29;20034;-75
2022/10/18 00:11:56;;;;;;;18.98;8.13;;;10.70;99.90;;;;;;4843336;29;20377;-74
2022/10/18 00:14:22;;;;;;;19.05;8.23;;;10.70;99.90;;;;;;4858237;29;20040;-75
2022/10/18 00:16:47;;;;;;;;;;;10.60;99.90;;;;;;4842249;29;20038;-74
2022/10/18 00:19:13;;;;;;;30.00;10.55;;;10.60;99.90;;;;;;4841570;29;19912;-75
2022/10/18 00:21:38;;;;;;;;;;;10.60;99.90;;;;;;4858570;29;20052;-74
2022/10/18 00:24:04;;;;;;;15.65;8.02;;;10.50;99.90;;;;;;4861388;29;19971;-75
2022/10/18 00:26:30;;;;;;;;;;;10.50;99.90;;;;;;4863156;29;20036;-75
2022/10/18 00:28:59;;;;;;;13.52;6.18;;;10.50;99.90;;;;;;4863221;29;20002;-75
2022/10/18 00:31:30;;;;;;;12.77;6.15;;;10.60;99.90;;;;;;4879724;29;20123;-75
2022/10/18 00:33:58;;;;;;;12.57;7.88;;;10.60;99.90;;;;;;4880076;29;20053;-75
2022/10/18 00:36:25;;;;;;;16.40;6.10;;;10.50;99.90;;;;;;4862867;29;20037;-74
2022/10/18 00:38:51;;;;;;;17.38;6.90;;;10.60;99.90;;;;;;4862906;29;20033;-75
2022/10/18 00:41:20;;;;;;;15.75;6.43;;;10.60;99.90;;;;;;4863139;29;20045;-75
2022/10/18 00:44:04;;;;;;;18.05;6.78;;;10.60;99.90;;;;;;4863442;29;20025;-75
2022/10/18 00:46:33;;;;;;;24.17;9.88;;;10.60;99.90;;;;;;4879826;29;20029;-75
2022/10/18 00:49:01;;;;;;;31.42;10.68;;;10.60;99.90;;;;;;4863185;29;20049;-75
2022/10/18 00:51:45;;;;;;;38.45;12.15;;;10.60;99.90;;;;;;4879906;29;20515;-75
2022/10/18 00:54:13;;;;;;;33.13;12.07;;;10.50;99.90;;;;;;4847934;29;20060;-75
2022/10/18 00:56:39;;;;;;;40.08;13.13;;;10.50;99.90;;;;;;4862566;29;20532;-75
2022/10/18 00:59:06;;;;;;;;;;;10.40;99.90;;;;;;4879689;29;20036;-74
2022/10/18 01:01:31;;;;;;;53.83;19.97;;;10.40;99.90;;;;;;4879571;29;20405;-75
2022/10/18 01:03:57;;;;;;;;;;;10.30;99.90;;;;;;4879812;29;20072;-76
2022/10/18 01:06:23;;;;;;;47.80;16.83;;;10.20;99.90;;;;;;4879405;29;19908;-75
2022/10/18 01:08:57;;;;;;;44.88;19.63;;;10.30;99.90;;;;;;4879572;29;20048;-74
2022/10/18 01:11:32;;;;;;;45.72;23.40;;;10.30;99.90;;;;;;4862631;29;20079;-75
2022/10/18 01:14:28;;;;;;;38.42;18.85;;;10.40;99.90;;;;;;4879561;29;20602;-75
2022/10/18 01:17:07;;;;;;;23.92;10.93;;;10.30;99.90;;;;;;4879317;29;20443;-76
2022/10/18 01:20:01;;;;;;;27.85;9.32;;;10.30;99.90;;;;;;4879065;29;20022;-74
2022/10/18 01:22:59;;;;;;;21.75;9.13;;;10.30;99.90;;;;;;4878711;29;20044;-76
2022/10/18 01:25:40;;;;;;;16.30;7.70;;;10.40;99.90;;;;;;4854499;29;20064;-75
2022/10/18 01:28:32;;;;;;;18.90;7.57;;;10.40;99.90;;;;;;4879642;29;20033;-75
2022/10/18 01:31:00;;;;;;;9.32;6.30;;;10.40;99.90;;;;;;4862974;29;20426;-75
2022/10/18 01:33:40;;;;;;;12.75;6.13;;;10.40;99.90;;;;;;4879767;29;20021;-75
2022/10/18 01:36:18;;;;;;;18.65;6.82;;;10.40;99.90;;;;;;4862391;29;20033;-75
2022/10/18 01:38:45;;;;;;;12.77;6.90;;;10.50;99.90;;;;;;4879642;29;20565;-75
2022/10/18 01:41:13;;;;;;;15.55;9.70;;;10.40;99.90;;;;;;4863004;29;20127;-75
2022/10/18 01:43:39;;;;;;;13.90;8.70;;;10.30;99.90;;;;;;4862893;29;20039;-75
2022/10/18 01:46:07;;;;;;;15.27;8.73;;;10.30;99.90;;;;;;4879794;29;20029;-76
2022/10/18 01:48:36;;;;;;;14.25;8.18;;;10.30;99.90;;;;;;4878987;29;20081;-75
2022/10/18 01:51:03;;;;;;;17.40;7.05;;;10.30;99.90;;;;;;4862421;29;20124;-75
2022/10/18 01:53:31;;;;;;;10.65;6.85;;;10.30;99.90;;;;;;4878691;29;20072;-75
2022/10/18 01:56:36;;;;;;;13.43;7.68;;;10.10;99.90;;;;;;4879047;29;20044;-75
2022/10/18 01:59:23;;;;;;;22.33;8.52;;;10.20;99.90;;;;;;4862145;29;20035;-76
2022/10/18 02:01:57;;;;;;;14.63;9.27;;;10.20;99.90;;;;;;4878996;29;20033;-75
2022/10/18 02:04:23;;;;;;;14.52;8.13;;;10.10;99.90;;;;;;4878930;29;20061;-75
2022/10/18 02:06:52;;;;;;;;;;;10.20;99.90;;;;;;4862727;29;20049;-74
2022/10/18 02:09:23;;;;;;;24.67;11.95;;;10.10;99.90;;;;;;4862145;29;20010;-75
2022/10/18 02:11:52;;;;;;;20.05;11.13;;;10.10;99.90;;;;;;4878497;29;20025;-75
2022/10/18 02:14:20;;;;;;;20.55;11.60;;;10.10;99.90;;;;;;4879011;29;20033;-75
2022/10/18 02:16:54;;;;;;;20.45;11.23;;;10.10;99.90;;;;;;4879142;29;20029;-75
2022/10/18 02:19:32;;;;;;;24.17;10.90;;;10.10;99.90;;;;;;4878625;29;20044;-75
2022/10/18 02:21:58;;;;;;;15.57;10.00;;;10.20;99.90;;;;;;4878874;29;20499;-75
2022/10/18 02:24:32;;;;;;;20.17;10.30;;;10.10;99.90;;;;;;4861786;29;20037;-75
2022/10/18 02:26:58;;;;;;;17.58;10.13;;;10.00;99.90;;;;;;4862476;29;20043;-75
2022/10/18 02:29:24;;;;;;;;;;;10.10;99.90;;;;;;4862166;29;20118;-75
2022/10/18 02:32:01;;;;;;;15.10;7.70;;;10.00;99.90;;;;;;4862085;29;19912;-76
2022/10/18 02:34:44;;;;;;;17.02;9.43;;;10.00;99.90;;;;;;4861692;29;20040;-75
2022/10/18 02:37:12;;;;;;;16.23;9.60;;;10.00;99.90;;;;;;4862974;29;20176;-76
2022/10/18 02:39:46;;;;;;;16.77;9.20;;;9.90;99.90;;;;;;4879338;29;20033;-75
2022/10/18 02:42:13;;;;;;;14.18;7.97;;;9.90;99.90;;;;;;4861332;29;20064;-75
2022/10/18 02:44:39;;;;;;;15.38;8.50;;;9.90;99.90;;;;;;4877716;29;20132;-75
2022/10/18 02:47:05;;;;;;;;;;;9.90;99.90;;;;;;4861191;29;20421;-75
2022/10/18 02:49:31;;;;;;;17.20;9.23;;;9.90;99.90;;;;;;4860938;29;19984;-75
2022/10/18 02:51:56;;;;;;;;;;;9.90;99.90;;;;;;4877555;29;20490;-74
2022/10/18 02:54:23;;;;;;;28.27;11.27;;;9.90;99.90;;;;;;4877591;29;20337;-75
2022/10/18 02:56:49;;;;;;;25.27;13.13;;;9.90;99.90;;;;;;4877393;29;20029;-75
2022/10/18 02:59:14;;;;;;;;;;;9.80;99.90;;;;;;4878087;29;20499;-75
2022/10/18 03:01:40;;;;;;;16.67;9.18;;;9.90;99.90;;;;;;4877237;29;20018;-75
2022/10/18 03:04:06;;;;;;;;;;;9.80;99.90;;;;;;4878399;29;20063;-76
2022/10/18 03:06:32;;;;;;;12.68;7.47;;;9.80;99.90;;;;;;4877318;29;19916;-75
2022/10/18 03:08:58;;;;;;;16.58;9.05;;;9.80;99.90;;;;;;4877835;29;20041;-75
2022/10/18 03:11:24;;;;;;;;;;;9.80;99.90;;;;;;4878539;29;20029;-76
2022/10/18 03:13:49;;;;;;;19.58;9.43;;;9.90;99.90;;;;;;4860789;29;19995;-76
2022/10/18 03:16:15;;;;;;;;;;;9.80;99.90;;;;;;4860483;29;20073;-74
2022/10/18 03:18:41;;;;;;;13.65;9.50;;;10.00;99.90;;;;;;4876878;29;19966;-75
2022/10/18 03:21:07;;;;;;;;;;;9.90;99.90;;;;;;4877579;29;20127;-75
2022/10/18 03:23:33;;;;;;;14.73;7.85;;;9.90;99.90;;;;;;4860584;29;20536;-75
2022/10/18 03:25:59;;;;;;;14.38;7.95;;;9.90;99.90;;;;;;4860581;29;20029;-75
2022/10/18 03:28:24;;;;;;;;;;;10.00;99.90;;;;;;4877170;29;20109;-75
2022/10/18 03:30:50;;;;;;;10.45;6.20;;;10.00;99.90;;;;;;4860197;29;19983;-75
2022/10/18 03:33:15;;;;;;;;;;;10.00;99.90;;;;;;4860828;29;20040;-75
2022/10/18 03:35:41;;;;;;;11.98;6.25;;;10.00;99.90;;;;;;4876886;29;19911;-75
2022/10/18 03:38:07;;;;;;;;;;;10.00;99.90;;;;;;4877792;29;20380;-75
2022/10/18 03:40:32;;;;;;;14.68;6.47;;;10.00;99.90;;;;;;4861007;29;19915;-77
2022/10/18 03:42:58;;;;;;;;;;;10.00;99.90;;;;;;4861249;29;20546;-75
2022/10/18 03:45:23;;;;;;;13.75;6.70;;;10.10;99.90;;;;;;4860592;29;19908;-75
2022/10/18 03:47:49;;;;;;;;;;;10.00;99.90;;;;;;4877690;29;20104;-75
2022/10/18 03:50:14;;;;;;;11.27;6.78;;;10.10;99.90;;;;;;4860703;29;20002;-75
2022/10/18 03:52:40;;;;;;;;;;;10.10;99.90;;;;;;4878544;29;20044;-76
2022/10/18 03:55:06;;;;;;;19.00;6.28;;;10.10;99.90;;;;;;4877946;29;19919;-76
2022/10/18 03:57:32;;;;;;;18.33;6.75;;;10.10;99.90;;;;;;4877772;29;20033;-76
2022/10/18 03:59:57;;;;;;;;;;;10.10;99.90;;;;;;4864609;29;20043;-76
2022/10/18 04:02:24;;;;;;;10.35;6.50;;;10.00;99.90;;;;;;4881500;29;19916;-76
2022/10/18 04:04:51;;;;;;;13.13;5.97;;;10.00;99.90;;;;;;4864922;29;20032;-75
2022/10/18 04:07:16;;;;;;;15.30;6.88;;;10.00;99.90;;;;;;4865047;29;20097;-76
2022/10/18 04:09:42;;;;;;;;;;;10.00;99.90;;;;;;4882333;29;20037;-76
2022/10/18 04:12:07;;;;;;;13.45;6.43;;;9.90;99.90;;;;;;4881933;29;20282;-75
2022/10/18 04:14:33;;;;;;;;;;;9.90;99.90;;;;;;4867950;29;20456;-75
2022/10/18 04:16:58;;;;;;;16.08;6.82;;;9.90;99.90;;;;;;4847326;29;20678;-75
2022/10/18 04:19:24;;;;;;;;;;;9.90;99.90;;;;;;4845627;29;20487;-76
2022/10/18 04:21:49;;;;;;;9.65;5.50;;;9.80;99.90;;;;;;4846612;29;19968;-76
2022/10/18 04:24:16;;;;;;;;;;;9.80;99.90;;;;;;4863395;29;20037;-75
2022/10/18 04:26:41;;;;;;;16.90;6.55;;;9.80;99.90;;;;;;4862942;29;19911;-76
2022/10/18 04:29:07;;;;;;;;;;;9.90;99.90;;;;;;4846650;29;20030;-76
2022/10/18 04:31:32;;;;;;;14.05;7.75;;;9.80;99.90;;;;;;4845851;29;19927;-76
2022/10/18 04:33:58;;;;;;;;;;;9.80;99.90;;;;;;4862197;29;20484;-75
2022/10/18 04:36:23;;;;;;;9.60;5.97;;;9.70;99.90;;;;;;4845331;29;20381;-75
2022/10/18 04:38:49;;;;;;;;;;;9.70;99.90;;;;;;4845701;29;20030;-75
2022/10/18 04:41:14;;;;;;;12.65;6.60;;;9.70;99.90;;;;;;4845531;29;19916;-76
2022/10/18 04:43:40;;;;;;;;;;;9.80;99.90;;;;;;4845819;29;20041;-75
2022/10/18 04:46:05;;;;;;;12.55;5.93;;;9.70;99.90;;;;;;4861708;29;19943;-75
2022/10/18 04:48:31;;;;;;;;;;;9.70;99.90;;;;;;4861066;29;20057;-75
2022/10/18 04:50:57;;;;;;;13.00;7.82;;;9.60;99.90;;;;;;4843505;29;19962;-75
2022/10/18 04:53:22;;;;;;;;;;;9.60;99.90;;;;;;4844113;29;20511;-75
2022/10/18 04:55:48;;;;;;;20.20;6.63;;;9.70;99.90;;;;;;4844179;29;20389;-75
2022/10/18 04:58:15;;;;;;;21.58;6.57;;;9.70;99.90;;;;;;4860686;29;20491;-75
2022/10/18 05:00:41;;;;;;;12.43;6.13;;;9.70;99.90;;;;;;4860241;29;20163;-75
2022/10/18 05:03:07;;;;;;;;;;;9.70;99.90;;;;;;4859672;29;20140;-76
2022/10/18 05:05:33;;;;;;;15.88;6.80;;;9.70;99.90;;;;;;4844817;29;19936;-76
2022/10/18 05:07:58;;;;;;;;;;;9.70;99.90;;;;;;4844257;29;20541;-76
2022/10/18 05:10:24;;;;;;;12.35;6.38;;;9.60;99.90;;;;;;4842017;29;19923;-75
2022/10/18 05:12:49;;;;;;;;;;;9.60;99.90;;;;;;4860885;29;20034;-75
2022/10/18 05:15:15;;;;;;;13.07;6.15;;;9.60;99.90;;;;;;4860029;29;20007;-76
2022/10/18 05:17:40;;;;;;;;;;;9.60;99.90;;;;;;4843302;29;20174;-76
2022/10/18 05:20:07;;;;;;;9.93;5.50;;;9.60;99.90;;;;;;4843738;29;19919;-76
2022/10/18 05:22:32;;;;;;;11.38;6.43;;;9.60;99.90;;;;;;4859486;29;20049;-76
2022/10/18 05:24:58;;;;;;;;;;;9.60;99.90;;;;;;4858538;29;20041;-75
2022/10/18 05:27:23;;;;;;;16.65;7.72;;;9.60;99.90;;;;;;4859779;29;19912;-75
2022/10/18 05:29:49;;;;;;;;;;;9.70;99.90;;;;;;4842660;29;20040;-76
2022/10/18 05:32:14;;;;;;;10.55;6.95;;;9.70;99.90;;;;;;4842176;29;19916;-75
2022/10/18 05:34:40;;;;;;;;;;;9.60;99.90;;;;;;4842809;29;20068;-74
2022/10/18 05:37:06;;;;;;;18.67;9.52;;;9.70;99.90;;;;;;4842789;29;19918;-75
2022/10/18 05:39:31;;;;;;;;;;;9.80;99.90;;;;;;4842988;29;20086;-74
2022/10/18 05:41:57;;;;;;;13.00;7.40;;;9.90;99.90;;;;;;4859508;29;19919;-75
2022/10/18 05:44:22;;;;;;;;;;;10.00;99.90;;;;;;4842546;29;20514;-75
2022/10/18 05:46:48;;;;;;;13.45;7.05;;;10.10;99.90;;;;;;4842238;29;20007;-75
2022/10/18 05:49:14;;;;;;;9.90;6.10;;;10.10;99.90;;;;;;4817563;29;741041;-75
2022/10/18 05:51:40;;;;;;;14.20;7.47;;;10.20;99.90;;;;;;4860577;29;20062;-75
2022/10/18 05:54:06;;;;;;;;;;;10.30;99.90;;;;;;4844576;29;20033;-75
2022/10/18 05:56:31;;;;;;;10.48;6.32;;;10.40;99.90;;;;;;4844093;29;19918;-77
2022/10/18 05:58:57;;;;;;;;;;;10.40;99.90;;;;;;4861568;29;20034;-75
2022/10/18 06:01:22;;;;;;;13.00;7.93;;;10.50;99.90;;;;;;4844568;29;19959;-75
2022/10/18 06:03:49;;;;;;;;;;;10.60;99.90;;;;;;4844660;29;20045;-76
2022/10/18 06:06:15;;;;;;;12.57;7.13;;;10.60;99.90;;;;;;4861503;29;19912;-75
2022/10/18 06:08:41;;;;;;;;;;;10.80;99.90;;;;;;4860945;29;20036;-76
2022/10/18 06:11:12;;;;;;;11.07;6.88;;;11.00;99.90;;;;;;4843423;29;20390;-75
2022/10/18 06:13:46;;;;;;;13.05;7.35;;;11.20;99.90;;;;;;4843823;29;20029;-76
2022/10/18 06:16:13;;;;;;;17.33;7.82;;;11.40;99.90;;;;;;4839639;29;20038;-75
2022/10/18 06:18:39;;;;;;;10.77;5.57;;;11.60;99.90;;;;;;4855816;29;20036;-76
2022/10/18 06:21:04;;;;;;;;;;;11.80;99.90;;;;;;4860306;29;20041;-76
2022/10/18 06:23:30;;;;;;;10.07;5.00;;;12.00;99.90;;;;;;4844159;29;19908;-75
2022/10/18 06:26:03;;;;;;;;;;;12.20;99.90;;;;;;4861033;29;20487;-76
2022/10/18 06:28:29;;;;;;;8.57;5.05;;;12.50;99.90;;;;;;4860222;29;19947;-76
2022/10/18 06:30:56;;;;;;;15.38;4.68;;;12.90;99.90;;;;;;4860589;29;20080;-76
2022/10/18 06:33:22;;;;;;;9.75;5.07;;;13.40;99.90;;;;;;4859196;29;20045;-75
2022/10/18 06:35:55;;;;;;;;;;;13.90;99.90;;;;;;4859756;29;20034;-75
2022/10/18 06:38:20;;;;;;;7.57;4.07;;;14.50;99.90;;;;;;4860182;29;19919;-76
2022/10/18 06:40:46;;;;;;;;;;;14.90;99.90;;;;;;4860218;29;20033;-76
2022/10/18 06:43:12;;;;;;;8.80;4.25;;;15.30;99.90;;;;;;4842228;29;19943;-76
2022/10/18 06:45:37;;;;;;;;;;;15.70;99.90;;;;;;4859008;29;20037;-74
2022/10/18 06:48:03;;;;;;;6.93;3.70;;;16.00;99.90;;;;;;4858298;29;19963;-76
2022/10/18 06:50:29;;;;;;;5.22;3.20;;;16.30;99.90;;;;;;4859327;29;20041;-77
2022/10/18 06:52:55;;;;;;;7.53;3.33;;;16.50;99.90;;;;;;4859244;29;20036;-77
2022/10/18 06:55:20;;;;;;;4.85;3.38;;;16.70;99.90;;;;;;4841765;29;20037;-77
2022/10/18 06:57:46;;;;;;;9.27;4.13;;;17.00;99.90;;;;;;4842006;29;20047;-76
2022/10/18 07:00:12;;;;;;;10.02;4.25;;;17.20;99.90;;;;;;4842178;29;20034;-77
2022/10/18 07:02:40;;;;;;;8.27;4.30;;;17.40;99.90;;;;;;4840424;29;20052;-76
2022/10/18 07:05:06;;;;;;;7.57;3.70;;;17.70;99.90;;;;;;4857805;29;20555;-76
2022/10/18 07:07:32;;;;;;;11.57;3.35;;;17.90;99.90;;;;;;4841444;29;20546;-76
2022/10/18 07:09:58;;;;;;;12.57;4.40;;;17.90;99.90;;;;;;4857983;29;20040;-75
2022/10/18 07:12:23;;;;;;;9.43;4.05;;;17.80;99.90;;;;;;4842021;29;20048;-76
2022/10/18 07:14:49;;;;;;;6.78;4.18;;;17.70;99.90;;;;;;4841733;29;20029;-76
2022/10/18 07:17:14;;;;;;;7.75;4.40;;;17.40;99.90;;;;;;4858122;29;20038;-75
2022/10/18 07:19:40;;;;;;;16.90;5.03;;;17.40;99.90;;;;;;4858653;29;20031;-75
2022/10/18 07:22:06;;;;;;;9.07;4.55;;;17.30;99.90;;;;;;4841385;29;20641;-75
2022/10/18 07:24:32;;;;;;;5.63;3.50;;;17.30;99.90;;;;;;4842511;29;20041;-76
2022/10/18 07:26:57;;;;;;;8.73;4.00;;;17.40;99.90;;;;;;4860578;29;20082;-76
2022/10/18 07:29:23;;;;;;;10.90;4.18;;;17.40;99.90;;;;;;4843322;29;20093;-76
2022/10/18 07:31:48;;;;;;;11.00;4.05;;;17.40;99.90;;;;;;4861564;29;20121;-77
2022/10/18 07:34:14;;;;;;;11.98;4.85;;;17.40;99.90;;;;;;4862172;29;20463;-76
2022/10/18 07:36:40;;;;;;;12.70;3.97;;;17.50;99.90;;;;;;4844463;29;20267;-76
2022/10/18 07:39:06;;;;;;;7.80;3.97;;;17.50;99.90;;;;;;4860766;29;20811;-76
2022/10/18 07:41:32;;;;;;;7.43;3.47;;;17.50;99.90;;;;;;4856387;29;20048;-76
2022/10/18 07:43:59;;;;;;;12.75;3.88;;;17.60;99.90;;;;;;4857772;29;20037;-76
2022/10/18 07:46:25;;;;;;;8.98;4.13;;;17.60;99.90;;;;;;4841165;29;20121;-75
2022/10/18 07:48:51;;;;;;;5.32;3.33;;;17.70;99.90;;;;;;4841310;29;20156;-75
2022/10/18 07:51:18;;;;;;;7.55;3.70;;;17.70;99.90;;;;;;4840471;29;20048;-76
2022/10/18 07:53:44;;;;;;;9.07;3.67;;;17.70;99.90;;;;;;4857425;29;20109;-76
2022/10/18 07:56:16;;;;;;;14.77;3.83;;;17.70;99.90;;;;;;4857369;29;20109;-75
2022/10/18 07:58:48;;;;;;;8.13;4.30;;;17.80;99.90;;;;;;4850982;29;20077;-76
2022/10/18 08:01:14;;;;;;;9.40;3.83;;;17.80;99.90;;;;;;4846287;29;20029;-75
2022/10/18 08:03:40;;;;;;;10.82;4.45;;;18.00;99.90;;;;;;4855819;29;20072;-75
2022/10/18 08:06:08;;;;;;;8.48;4.43;;;18.10;99.90;;;;;;4858760;29;20037;-76
2022/10/18 08:08:35;;;;;;;15.38;4.50;;;18.30;99.90;;;;;;4857228;29;20029;-76
2022/10/18 08:11:06;;;;;;;6.55;4.00;;;18.60;99.90;;;;;;4855719;29;20045;-76
2022/10/18 08:13:32;;;;;;;14.00;4.60;;;19.00;99.90;;;;;;4839851;29;20038;-76
2022/10/18 08:16:03;;;;;;;10.55;5.40;;;19.40;99.90;;;;;;4836555;29;20048;-75
2022/10/18 08:18:29;;;;;;;17.25;5.78;;;20.10;99.90;;;;;;4836432;29;20061;-79
2022/10/18 08:20:55;;;;;;;12.45;6.35;;;20.80;99.10;;;;;;4837310;29;20044;-82
2022/10/18 08:23:21;;;;;;;12.07;5.97;;;21.40;97.70;;;;;;4821058;29;20038;-83
2022/10/18 08:25:46;;;;;;;10.55;6.32;;;22.00;96.20;;;;;;4837610;29;20506;-81
2022/10/18 08:28:12;;;;;;;8.38;5.38;;;22.60;94.70;;;;;;4821048;29;20045;-81
2022/10/18 08:30:38;;;;;;;9.70;6.03;;;23.10;93.30;;;;;;4822005;29;20037;-80
2022/10/18 08:33:04;;;;;;;12.50;6.00;;;23.50;91.50;;;;;;4836353;29;20041;-81
2022/10/18 08:35:31;;;;;;;19.33;6.40;;;23.90;90.40;;;;;;4864276;29;20033;-79
2022/10/18 08:37:57;;;;;;;13.40;6.55;;;24.30;87.50;;;;;;4874388;29;20037;-80
2022/10/18 08:40:25;;;;;;;21.13;8.02;;;24.50;85.30;;;;;;4874142;29;20029;-76
2022/10/18 08:43:23;;;;;;;10.13;6.43;;;24.70;82.50;;;;;;4874160;29;20044;-75
2022/10/18 08:45:51;;;;;;;15.68;6.88;;;24.90;79.50;;;;;;4876045;29;20509;-76
2022/10/18 08:48:32;;;;;;;9.10;4.90;;;25.00;78.90;;;;;;4876826;29;20084;-76
2022/10/18 08:51:00;;;;;;;12.52;7.70;;;25.40;74.90;;;;;;4877573;29;20089;-75
2022/10/18 08:53:28;;;;;;;12.32;6.93;;;25.60;74.10;;;;;;4860532;29;20466;-74
2022/10/18 08:56:02;;;;;;;18.17;6.80;;;25.90;72.30;;;;;;4860658;29;20037;-76
2022/10/18 08:58:31;;;;;;;10.65;6.90;;;26.30;69.90;;;;;;4877107;29;20323;-75
2022/10/18 09:01:15;;;;;;;8.13;5.72;;;26.40;66.60;;;;;;4877038;29;20116;-73
2022/10/18 09:03:59;;;;;;;11.10;5.75;;;26.50;65.20;;;;;;4877090;29;20041;-73
2022/10/18 09:06:39;;;;;;;8.70;4.40;;;26.70;62.50;;;;;;4854306;29;20444;-76
2022/10/18 09:09:46;;;;;;;13.85;5.47;;;26.50;59.40;;;;;;4858000;29;20025;-75
2022/10/18 09:12:38;;;;;;;9.07;4.28;;;26.80;58.30;;;;;;4839165;29;20037;-75
2022/10/18 09:15:09;;;;;;;11.75;4.72;;;26.70;58.00;;;;;;4854516;29;20030;-75
2022/10/18 09:17:47;;;;;;;13.73;4.32;;;26.50;58.10;;;;;;4844988;29;20041;-75
2022/10/18 09:20:24;;;;;;;7.22;4.20;;;26.80;56.50;;;;;;4857763;29;20052;-75
2022/10/18 09:23:01;;;;;;;13.82;4.63;;;26.70;56.10;;;;;;4866568;29;20499;-75
2022/10/18 09:26:08;;;;;;;6.78;3.85;;;26.80;54.50;;;;;;4848960;29;20093;-76
2022/10/18 09:28:49;;;;;;;;;;;27.00;52.80;;;;;;4822120;29;20037;-74
2022/10/18 09:31:39;;;;;;;7.45;4.00;;;27.00;52.50;;;;;;4841379;29;20421;-76
2022/10/18 09:34:11;;;;;;;8.38;3.85;;;26.90;52.30;;;;;;4840980;29;20025;-75
2022/10/18 09:36:38;;;;;;;9.38;4.03;;;27.10;51.60;;;;;;4861813;29;20483;-75
2022/10/18 09:39:12;;;;;;;8.00;3.88;;;27.00;52.10;;;;;;4843459;29;20403;-75
2022/10/18 09:42:12;;;;;;;5.72;4.15;;;27.10;52.20;;;;;;4861888;29;20136;-75
2022/10/18 09:44:43;;;;;;;15.00;4.63;;;27.30;50.60;;;;;;4843737;29;20582;-75
2022/10/18 09:47:27;;;;;;;10.95;4.43;;;27.40;49.60;;;;;;4841163;29;20240;-75
2022/10/18 09:50:34;;;;;;;6.03;3.78;;;27.10;49.00;;;;;;4839470;29;20081;-76
2022/10/18 09:53:34;;;;;;;11.18;4.07;;;26.80;50.00;;;;;;4839007;29;20038;-75
2022/10/18 09:56:09;;;;;;;9.65;3.80;;;26.10;50.70;;;;;;4851062;29;20065;-76
2022/10/18 09:58:44;;;;;;;17.75;3.88;;;25.40;53.50;;;;;;4854155;29;20439;-75
2022/10/18 10:01:14;;;;;;;9.63;4.25;;;24.80;54.50;;;;;;4840587;29;20075;-81
2022/10/18 10:03:40;;;;;;;7.22;4.88;;;24.20;55.90;;;;;;4857727;29;20038;-81
2022/10/18 10:06:27;;;;;;;7.40;4.63;;;23.60;57.00;;;;;;4857187;29;20061;-85
2022/10/18 10:09:04;;;;;;;7.45;4.95;;;23.10;58.30;;;;;;4841449;29;20089;-81
2022/10/18 10:11:44;;;;;;;9.18;5.30;;;22.70;59.80;;;;;;4841032;29;20066;-78
2022/10/18 10:14:14;;;;;;;10.38;4.57;;;22.40;59.60;;;;;;4857773;29;20567;-78
2022/10/18 10:16:47;;;;;;;11.88;4.43;;;22.00;60.70;;;;;;4857651;29;20035;-77
2022/10/18 10:19:22;;;;;;;10.93;4.63;;;21.80;62.60;;;;;;4840684;29;20033;-77
2022/10/18 10:21:52;;;;;;;11.90;4.93;;;21.60;63.10;;;;;;4840496;29;20762;-77
2022/10/18 10:24:48;;;;;;;8.98;4.40;;;21.40;63.00;;;;;;4840234;29;20041;-76
2022/10/18 10:27:23;;;;;;;14.17;4.50;;;21.20;65.00;;;;;;4839854;29;20060;-73
2022/10/18 10:29:54;;;;;;;12.60;5.63;;;21.10;65.00;;;;;;4841119;29;20022;-75
2022/10/18 10:32:22;;;;;;;16.95;4.85;;;21.00;66.10;;;;;;4857508;29;20033;-74
2022/10/18 10:34:48;;;;;;;14.55;4.40;;;20.90;65.50;;;;;;4859175;29;20026;-75
2022/10/18 10:37:33;;;;;;;5.82;3.88;;;20.80;65.60;;;;;;4859120;29;20411;-75
2022/10/18 10:40:12;;;;;;;8.63;4.22;;;20.70;65.90;;;;;;4859361;29;20036;-74
2022/10/18 10:42:56;;;;;;;11.32;4.35;;;20.70;68.10;;;;;;4841812;29;20041;-75
2022/10/18 10:45:24;;;;;;;7.13;3.85;;;20.60;68.40;;;;;;4858615;29;20045;-74
2022/10/18 10:47:52;;;;;;;7.38;4.18;;;20.50;68.00;;;;;;4858785;29;20583;-75
2022/10/18 10:50:27;;;;;;;7.68;3.80;;;20.50;67.70;;;;;;4841824;29;20117;-76
2022/10/18 10:52:53;;;;;;;8.52;3.40;;;20.50;67.90;;;;;;4841338;29;20038;-76
2022/10/18 10:55:24;;;;;;;8.02;4.10;;;20.40;68.70;;;;;;4841442;29;20025;-76
2022/10/18 10:57:51;;;;;;;17.77;4.05;;;20.30;68.80;;;;;;4857710;29;20630;-76
2022/10/18 11:00:38;;;;;;;7.97;3.53;;;20.30;69.40;;;;;;4841118;29;20108;-77
2022/10/18 11:03:10;;;;;;;6.65;3.72;;;20.30;70.00;;;;;;4857584;29;20045;-78
2022/10/18 11:05:59;;;;;;;12.98;3.65;;;20.30;69.30;;;;;;4857750;29;20071;-77
2022/10/18 11:08:28;;;;;;;10.05;3.47;;;20.30;68.90;;;;;;4857266;29;20064;-76
2022/10/18 11:11:03;;;;;;;7.35;2.83;;;20.20;68.80;;;;;;4841311;29;20026;-76
2022/10/18 11:14:16;;;;;;;6.53;3.28;;;20.20;67.10;;;;;;4857543;29;20487;-77
2022/10/18 11:16:55;;;;;;;5.78;3.05;;;20.10;69.10;;;;;;4854146;29;20211;-77
2022/10/18 11:20:09;;;;;;;8.18;3.72;;;20.10;69.50;;;;;;4857582;29;20026;-77
2022/10/18 11:23:06;;;;;;;6.15;3.28;;;20.10;67.60;;;;;;4840531;29;20188;-77
2022/10/18 11:25:58;;;;;;;6.30;3.35;;;20.00;68.90;;;;;;4857873;29;20041;-77
2022/10/18 11:28:32;;;;;;;4.32;2.72;;;20.00;69.10;;;;;;4857421;29;20040;-77
2022/10/18 11:31:20;;;;;;;7.25;3.20;;;20.10;68.60;;;;;;4857848;29;20042;-76
2022/10/18 11:34:06;;;;;;;5.60;3.17;;;20.10;68.70;;;;;;4840778;29;20033;-76
2022/10/18 11:36:50;;;;;;;8.95;3.47;;;20.10;68.00;;;;;;4840587;29;20026;-77
2022/10/18 11:39:36;;;;;;;5.70;2.70;;;20.10;68.10;;;;;;4841108;29;20029;-77
2022/10/18 11:42:25;;;;;;;;;;;20.10;66.20;;;;;;4841298;29;20112;-77
2022/10/18 11:45:26;;;;;;;7.90;3.58;;;20.00;67.20;;;;;;4835563;29;19911;-77
2022/10/18 11:48:14;;;;;;;11.90;3.65;;;20.00;67.20;;;;;;4841029;29;20049;-76
2022/10/18 11:50:47;;;;;;;7.65;3.42;;;19.90;67.70;;;;;;4857259;29;20487;-76
2022/10/18 11:53:24;;;;;;;8.18;3.08;;;19.90;68.50;;;;;;4840738;29;20037;-76
2022/10/18 11:56:08;;;;;;;5.05;3.10;;;20.00;69.20;;;;;;4840607;29;20470;-77
2022/10/18 11:58:46;;;;;;;5.85;3.50;;;20.00;69.30;;;;;;4840906;29;20038;-77
2022/10/18 12:01:35;;;;;;;9.32;3.05;;;20.10;68.70;;;;;;4856258;29;20034;-76
2022/10/18 12:04:14;;;;;;;6.18;3.00;;;20.00;67.20;;;;;;4857422;29;20038;-77
2022/10/18 12:06:42;;;;;;;15.45;2.90;;;20.10;66.80;;;;;;4840437;29;20613;-76
2022/10/18 12:09:32;;;;;;;14.15;3.50;;;20.10;66.30;;;;;;4857568;29;20409;-77
2022/10/18 12:12:01;;;;;;;4.35;2.83;;;20.10;65.80;;;;;;4857358;29;20121;-78
2022/10/18 12:14:34;;;;;;;18.83;2.85;;;20.10;65.60;;;;;;4840751;29;20064;-76
2022/10/18 12:17:04;;;;;;;13.02;2.80;;;20.20;65.60;;;;;;4857182;29;20050;-76
2022/10/18 12:19:33;;;;;;;5.50;2.67;;;20.30;65.60;;;;;;4841430;29;20567;-77
2022/10/18 12:22:13;;;;;;;5.35;2.70;;;20.40;64.50;;;;;;4862201;29;20081;-79
2022/10/18 12:24:40;;;;;;;5.57;2.50;;;20.40;62.30;;;;;;4862858;29;20452;-78
2022/10/18 12:27:12;;;;;;;8.07;3.53;;;20.40;63.00;;;;;;4844783;29;20116;-76
2022/10/18 12:29:44;;;;;;;6.63;2.38;;;20.50;62.30;;;;;;4844097;29;20037;-76
2022/10/18 12:32:17;;;;;;;4.65;2.17;;;20.50;62.30;;;;;;4844218;29;20076;-77
2022/10/18 12:34:55;;;;;;;5.57;3.22;;;20.50;61.10;;;;;;4844132;29;20058;-77
2022/10/18 12:37:51;;;;;;;5.18;2.65;;;20.40;61.20;;;;;;4860858;29;20030;-77
2022/10/18 12:40:40;;;;;;;7.30;2.72;;;20.40;61.70;;;;;;4860424;29;20030;-76
2022/10/18 12:43:16;;;;;;;5.18;2.17;;;20.60;63.30;;;;;;4860436;29;20037;-76
2022/10/18 12:46:10;;;;;;;;;;;20.70;63.10;;;;;;4860968;29;20025;-77
2022/10/18 12:48:41;;;;;;;7.25;2.33;;;20.80;63.50;;;;;;4841899;29;19984;-76
2022/10/18 12:51:19;;;;;;;7.68;3.03;;;20.90;63.10;;;;;;4860149;29;20050;-76
2022/10/18 12:54:09;;;;;;;6.50;2.28;;;21.00;62.70;;;;;;4860032;29;20519;-74
2022/10/18 12:56:40;;;;;;;7.53;2.85;;;21.10;61.90;;;;;;4844358;29;20026;-75
2022/10/18 12:59:15;;;;;;;11.23;3.28;;;21.10;61.40;;;;;;4860127;29;20608;-74
2022/10/18 13:02:04;;;;;;;5.35;2.22;;;21.10;61.70;;;;;;4860824;29;20052;-75
2022/10/18 13:04:31;;;;;;;10.93;2.83;;;21.10;61.30;;;;;;4838091;29;20402;-73
2022/10/18 13:06:59;;;;;;;11.10;2.58;;;21.10;61.60;;;;;;4843607;29;20440;-75
2022/10/18 13:09:35;;;;;;;5.38;2.55;;;21.10;61.60;;;;;;4860046;29;20468;-75
2022/10/18 13:12:10;;;;;;;12.82;2.80;;;21.10;61.30;;;;;;4843006;29;20064;-75
2022/10/18 13:15:09;;;;;;;6.88;2.90;;;21.10;61.40;;;;;;4860086;29;20160;-74
2022/10/18 13:17:48;;;;;;;6.55;2.95;;;21.10;62.50;;;;;;4859785;29;20070;-74
2022/10/18 13:20:42;;;;;;;6.13;3.22;;;21.00;62.40;;;;;;4859331;29;20491;-74
2022/10/18 13:23:23;;;;;;;6.18;3.08;;;20.90;62.60;;;;;;4843053;29;20045;-74